AMCO weather

Amity Heliport
Amity, Queensland, Australia

Public forecast

Using degrees Celsius for public forecast. Weather courtesy of forecast.io.

Closest aviation weather report (METAR) to Amity Heliport

Closest report is Brisbane International Airport, 17.3 nm (32.0 km) W. Retrieved 2019/10/16 05:30 UTC (26 minutes ago):

YBBN 160530Z 03019KT 9999 FEW035 24/20 Q1012 NOSIG

Closest aviation forecast (TAF) to Amity Heliport

Closest forecast is Brisbane International Airport, 17.3 nm (32.0 km) W. Retrieved 2019-10-16 00:00 UTC (6 hours ago):

TAF YBBN 152309Z 1600/1706 36014KT 9999 SCT025 FM160200 02020KT 9999 FEW035 FM161200 36012KT 9999 SCT010 BKN020 FM162100 34014KT 9999 SCT030